sensor_id;sensor_type;location;lat;lon;timestamp;temperature;humidity
26182;DHT22;13927;51.534;11.866;2022-09-09T00:01:22;15.30;99.90
26182;DHT22;13927;51.534;11.866;2022-09-09T00:06:31;15.30;99.90
26182;DHT22;13927;51.534;11.866;2022-09-09T00:09:18;15.30;99.90
26182;DHT22;13927;51.534;11.866;2022-09-09T00:11:51;15.30;99.90
26182;DHT22;13927;51.534;11.866;2022-09-09T00:14:50;15.30;99.90
26182;DHT22;13927;51.534;11.866;2022-09-09T00:20:06;15.30;99.90
26182;DHT22;13927;51.534;11.866;2022-09-09T00:22:42;15.30;99.90
26182;DHT22;13927;51.534;11.866;2022-09-09T00:25:46;15.30;99.90
26182;DHT22;13927;51.534;11.866;2022-09-09T00:28:23;15.30;99.90
26182;DHT22;13927;51.534;11.866;2022-09-09T00:30:50;15.30;99.90
26182;DHT22;13927;51.534;11.866;2022-09-09T00:33:22;15.30;99.90
26182;DHT22;13927;51.534;11.866;2022-09-09T00:35:52;15.40;99.90
26182;DHT22;13927;51.534;11.866;2022-09-09T00:38:38;15.30;99.90
26182;DHT22;13927;51.534;11.866;2022-09-09T00:41:10;15.20;99.90
26182;DHT22;13927;51.534;11.866;2022-09-09T00:43:42;15.20;99.90
26182;DHT22;13927;51.534;11.866;2022-09-09T00:52:23;15.00;99.90
26182;DHT22;13927;51.534;11.866;2022-09-09T00:55:21;14.90;99.90
26182;DHT22;13927;51.534;11.866;2022-09-09T00:58:19;14.90;99.90
26182;DHT22;13927;51.534;11.866;2022-09-09T01:01:10;14.90;99.90
26182;DHT22;13927;51.534;11.866;2022-09-09T01:09:14;15.00;99.90
26182;DHT22;13927;51.534;11.866;2022-09-09T01:12:15;15.00;99.90
26182;DHT22;13927;51.534;11.866;2022-09-09T01:15:08;15.00;99.90
26182;DHT22;13927;51.534;11.866;2022-09-09T01:18:16;15.00;99.90
26182;DHT22;13927;51.534;11.866;2022-09-09T01:21:06;15.00;99.90
26182;DHT22;13927;51.534;11.866;2022-09-09T01:24:08;15.10;99.90
26182;DHT22;13927;51.534;11.866;2022-09-09T01:26:43;15.10;99.90
26182;DHT22;13927;51.534;11.866;2022-09-09T01:29:13;15.10;99.90
26182;DHT22;13927;51.534;11.866;2022-09-09T01:34:19;15.10;99.90
26182;DHT22;13927;51.534;11.866;2022-09-09T01:37:08;15.00;99.90
26182;DHT22;13927;51.534;11.866;2022-09-09T01:39:38;15.00;99.90
26182;DHT22;13927;51.534;11.866;2022-09-09T01:42:10;15.00;99.90
26182;DHT22;13927;51.534;11.866;2022-09-09T01:44:38;14.90;99.90
26182;DHT22;13927;51.534;11.866;2022-09-09T01:47:05;14.90;99.90
26182;DHT22;13927;51.534;11.866;2022-09-09T01:49:31;14.90;99.90
26182;DHT22;13927;51.534;11.866;2022-09-09T01:51:59;14.90;99.90
26182;DHT22;13927;51.534;11.866;2022-09-09T01:54:30;14.90;99.90
26182;DHT22;13927;51.534;11.866;2022-09-09T01:57:04;14.90;99.90
26182;DHT22;13927;51.534;11.866;2022-09-09T01:59:45;14.90;99.90
26182;DHT22;13927;51.534;11.866;2022-09-09T02:02:33;14.90;99.90
26182;DHT22;13927;51.534;11.866;2022-09-09T02:05:11;14.90;99.90
26182;DHT22;13927;51.534;11.866;2022-09-09T02:08:20;14.70;99.90
26182;DHT22;13927;51.534;11.866;2022-09-09T02:11:03;14.80;99.90
26182;DHT22;13927;51.534;11.866;2022-09-09T02:13:35;14.80;99.90
26182;DHT22;13927;51.534;11.866;2022-09-09T02:16:15;14.70;99.90
26182;DHT22;13927;51.534;11.866;2022-09-09T02:19:03;14.80;99.90
26182;DHT22;13927;51.534;11.866;2022-09-09T02:21:34;14.80;99.90
26182;DHT22;13927;51.534;11.866;2022-09-09T02:24:06;14.80;99.90
26182;DHT22;13927;51.534;11.866;2022-09-09T02:26:37;14.80;99.90
26182;DHT22;13927;51.534;11.866;2022-09-09T02:29:21;14.80;99.90
26182;DHT22;13927;51.534;11.866;2022-09-09T02:32:01;14.80;99.90
26182;DHT22;13927;51.534;11.866;2022-09-09T02:34:50;14.70;99.90
26182;DHT22;13927;51.534;11.866;2022-09-09T02:37:25;14.70;99.90
26182;DHT22;13927;51.534;11.866;2022-09-09T02:40:15;14.70;99.90
26182;DHT22;13927;51.534;11.866;2022-09-09T02:42:43;14.70;99.90
26182;DHT22;13927;51.534;11.866;2022-09-09T02:45:13;14.70;99.90
26182;DHT22;13927;51.534;11.866;2022-09-09T02:47:51;14.70;99.90
26182;DHT22;13927;51.534;11.866;2022-09-09T02:56:17;14.70;99.90
26182;DHT22;13927;51.534;11.866;2022-09-09T02:58:46;14.70;99.90
26182;DHT22;13927;51.534;11.866;2022-09-09T03:01:12;14.60;99.90
26182;DHT22;13927;51.534;11.866;2022-09-09T03:03:38;14.60;99.90
26182;DHT22;13927;51.534;11.866;2022-09-09T03:06:06;14.60;99.90
26182;DHT22;13927;51.534;11.866;2022-09-09T03:08:32;14.50;99.90
26182;DHT22;13927;51.534;11.866;2022-09-09T03:10:59;14.50;99.90
26182;DHT22;13927;51.534;11.866;2022-09-09T03:13:27;14.50;99.90
26182;DHT22;13927;51.534;11.866;2022-09-09T03:15:52;14.40;99.90
26182;DHT22;13927;51.534;11.866;2022-09-09T03:18:18;14.40;99.90
26182;DHT22;13927;51.534;11.866;2022-09-09T03:20:46;14.40;99.90
26182;DHT22;13927;51.534;11.866;2022-09-09T03:23:14;14.40;99.90
26182;DHT22;13927;51.534;11.866;2022-09-09T03:25:46;14.40;99.90
26182;DHT22;13927;51.534;11.866;2022-09-09T03:28:13;14.40;99.90
26182;DHT22;13927;51.534;11.866;2022-09-09T03:30:39;14.40;99.90
26182;DHT22;13927;51.534;11.866;2022-09-09T03:33:33;14.30;99.90
26182;DHT22;13927;51.534;11.866;2022-09-09T03:35:59;14.30;99.90
26182;DHT22;13927;51.534;11.866;2022-09-09T03:38:26;14.30;99.90
26182;DHT22;13927;51.534;11.866;2022-09-09T03:40:54;14.30;99.90
26182;DHT22;13927;51.534;11.866;2022-09-09T03:43:22;14.30;99.90
26182;DHT22;13927;51.534;11.866;2022-09-09T03:45:48;14.40;99.90
26182;DHT22;13927;51.534;11.866;2022-09-09T03:48:16;14.30;99.90
26182;DHT22;13927;51.534;11.866;2022-09-09T03:50:46;14.40;99.90
26182;DHT22;13927;51.534;11.866;2022-09-09T03:53:13;14.40;99.90
26182;DHT22;13927;51.534;11.866;2022-09-09T03:55:44;14.40;99.90
26182;DHT22;13927;51.534;11.866;2022-09-09T03:58:14;14.30;99.90
26182;DHT22;13927;51.534;11.866;2022-09-09T04:00:40;14.30;99.90
26182;DHT22;13927;51.534;11.866;2022-09-09T04:03:09;14.40;99.90
26182;DHT22;13927;51.534;11.866;2022-09-09T04:05:35;14.30;99.90
26182;DHT22;13927;51.534;11.866;2022-09-09T04:08:07;14.30;99.90
26182;DHT22;13927;51.534;11.866;2022-09-09T04:10:34;14.30;99.90
26182;DHT22;13927;51.534;11.866;2022-09-09T04:13:03;14.30;99.90
26182;DHT22;13927;51.534;11.866;2022-09-09T04:15:31;14.40;99.90
26182;DHT22;13927;51.534;11.866;2022-09-09T04:17:57;14.40;99.90
26182;DHT22;13927;51.534;11.866;2022-09-09T04:20:23;14.40;99.90
26182;DHT22;13927;51.534;11.866;2022-09-09T04:22:48;14.40;99.90
26182;DHT22;13927;51.534;11.866;2022-09-09T04:25:14;14.40;99.90
26182;DHT22;13927;51.534;11.866;2022-09-09T04:27:40;14.40;99.90
26182;DHT22;13927;51.534;11.866;2022-09-09T04:30:06;14.50;99.90
26182;DHT22;13927;51.534;11.866;2022-09-09T04:32:33;14.50;99.90
26182;DHT22;13927;51.534;11.866;2022-09-09T04:34:59;14.60;99.90
26182;DHT22;13927;51.534;11.866;2022-09-09T04:37:25;14.70;99.90
26182;DHT22;13927;51.534;11.866;2022-09-09T04:39:50;14.70;99.90
26182;DHT22;13927;51.534;11.866;2022-09-09T04:42:16;14.80;99.90
26182;DHT22;13927;51.534;11.866;2022-09-09T04:44:44;14.80;99.90
26182;DHT22;13927;51.534;11.866;2022-09-09T04:47:10;14.90;99.90
26182;DHT22;13927;51.534;11.866;2022-09-09T04:49:36;14.90;99.90
26182;DHT22;13927;51.534;11.866;2022-09-09T04:52:04;15.00;99.90
26182;DHT22;13927;51.534;11.866;2022-09-09T04:54:30;15.00;99.90
26182;DHT22;13927;51.534;11.866;2022-09-09T04:56:56;15.10;99.90
26182;DHT22;13927;51.534;11.866;2022-09-09T04:59:22;15.10;99.90
26182;DHT22;13927;51.534;11.866;2022-09-09T05:01:48;15.20;99.90
26182;DHT22;13927;51.534;11.866;2022-09-09T05:04:15;15.20;99.90
26182;DHT22;13927;51.534;11.866;2022-09-09T05:06:41;15.30;99.90
26182;DHT22;13927;51.534;11.866;2022-09-09T05:09:08;15.30;99.90
26182;DHT22;13927;51.534;11.866;2022-09-09T05:11:34;15.30;99.90
26182;DHT22;13927;51.534;11.866;2022-09-09T05:14:04;15.40;99.90
26182;DHT22;13927;51.534;11.866;2022-09-09T05:16:30;15.40;99.90
26182;DHT22;13927;51.534;11.866;2022-09-09T05:18:56;15.40;99.90
26182;DHT22;13927;51.534;11.866;2022-09-09T05:21:24;15.50;99.90
26182;DHT22;13927;51.534;11.866;2022-09-09T05:23:51;15.50;99.90
26182;DHT22;13927;51.534;11.866;2022-09-09T05:26:19;15.50;99.90
26182;DHT22;13927;51.534;11.866;2022-09-09T05:28:51;15.50;99.90
26182;DHT22;13927;51.534;11.866;2022-09-09T05:31:18;15.50;99.90
26182;DHT22;13927;51.534;11.866;2022-09-09T05:33:45;15.50;99.90
26182;DHT22;13927;51.534;11.866;2022-09-09T05:36:17;15.60;99.90
26182;DHT22;13927;51.534;11.866;2022-09-09T05:38:50;15.60;99.90
26182;DHT22;13927;51.534;11.866;2022-09-09T05:41:19;15.70;99.90
26182;DHT22;13927;51.534;11.866;2022-09-09T05:43:45;15.80;99.90
26182;DHT22;13927;51.534;11.866;2022-09-09T05:46:18;15.80;99.90
26182;DHT22;13927;51.534;11.866;2022-09-09T05:48:47;15.90;99.90
26182;DHT22;13927;51.534;11.866;2022-09-09T05:51:21;16.00;99.90
26182;DHT22;13927;51.534;11.866;2022-09-09T05:53:51;16.10;99.90
26182;DHT22;13927;51.534;11.866;2022-09-09T05:56:21;16.10;99.90
26182;DHT22;13927;51.534;11.866;2022-09-09T05:58:49;16.20;99.90
26182;DHT22;13927;51.534;11.866;2022-09-09T06:01:24;16.30;99.90
26182;DHT22;13927;51.534;11.866;2022-09-09T06:03:59;16.30;99.90
26182;DHT22;13927;51.534;11.866;2022-09-09T06:06:27;16.30;99.90
26182;DHT22;13927;51.534;11.866;2022-09-09T06:08:57;16.40;99.90
26182;DHT22;13927;51.534;11.866;2022-09-09T06:11:28;16.40;99.90
26182;DHT22;13927;51.534;11.866;2022-09-09T06:13:57;16.40;99.90
26182;DHT22;13927;51.534;11.866;2022-09-09T06:16:25;16.50;99.90
26182;DHT22;13927;51.534;11.866;2022-09-09T06:18:55;16.50;99.90
26182;DHT22;13927;51.534;11.866;2022-09-09T06:21:30;16.60;99.90
26182;DHT22;13927;51.534;11.866;2022-09-09T06:23:58;16.60;99.90
26182;DHT22;13927;51.534;11.866;2022-09-09T06:26:26;16.60;99.90
26182;DHT22;13927;51.534;11.866;2022-09-09T06:28:56;16.60;99.90
26182;DHT22;13927;51.534;11.866;2022-09-09T06:31:26;16.60;99.90
26182;DHT22;13927;51.534;11.866;2022-09-09T06:33:56;16.70;99.90
26182;DHT22;13927;51.534;11.866;2022-09-09T06:36:41;16.70;99.90
26182;DHT22;13927;51.534;11.866;2022-09-09T06:39:07;16.80;99.90
26182;DHT22;13927;51.534;11.866;2022-09-09T06:41:37;16.90;99.90
26182;DHT22;13927;51.534;11.866;2022-09-09T06:44:03;17.10;99.90
26182;DHT22;13927;51.534;11.866;2022-09-09T06:46:31;17.20;99.90
26182;DHT22;13927;51.534;11.866;2022-09-09T06:49:00;17.20;99.90
26182;DHT22;13927;51.534;11.866;2022-09-09T06:51:29;17.30;99.90
26182;DHT22;13927;51.534;11.866;2022-09-09T06:53:58;17.30;99.90
26182;DHT22;13927;51.534;11.866;2022-09-09T06:56:45;17.40;99.90
26182;DHT22;13927;51.534;11.866;2022-09-09T06:59:11;17.50;99.90
26182;DHT22;13927;51.534;11.866;2022-09-09T07:01:41;17.60;99.90
26182;DHT22;13927;51.534;11.866;2022-09-09T07:41:45;17.60;99.90
26182;DHT22;13927;51.534;11.866;2022-09-09T07:44:14;18.90;99.90
26182;DHT22;13927;51.534;11.866;2022-09-09T07:46:42;18.90;99.90
26182;DHT22;13927;51.534;11.866;2022-09-09T07:49:08;18.90;99.90
26182;DHT22;13927;51.534;11.866;2022-09-09T07:51:39;19.00;99.90
26182;DHT22;13927;51.534;11.866;2022-09-09T07:54:10;18.90;99.90
26182;DHT22;13927;51.534;11.866;2022-09-09T07:56:44;19.00;99.90
26182;DHT22;13927;51.534;11.866;2022-09-09T07:59:10;19.10;99.90
26182;DHT22;13927;51.534;11.866;2022-09-09T08:01:40;19.20;99.90
26182;DHT22;13927;51.534;11.866;2022-09-09T08:04:10;19.20;99.90
26182;DHT22;13927;51.534;11.866;2022-09-09T08:06:45;19.40;99.90
26182;DHT22;13927;51.534;11.866;2022-09-09T08:09:31;19.50;99.90
26182;DHT22;13927;51.534;11.866;2022-09-09T08:11:58;19.70;99.90
26182;DHT22;13927;51.534;11.866;2022-09-09T08:31:39;19.90;99.90
26182;DHT22;13927;51.534;11.866;2022-09-09T08:34:06;21.30;99.90
26182;DHT22;13927;51.534;11.866;2022-09-09T08:36:35;21.20;99.90
26182;DHT22;13927;51.534;11.866;2022-09-09T08:39:05;21.20;99.90
26182;DHT22;13927;51.534;11.866;2022-09-09T08:42:00;21.20;99.90
26182;DHT22;13927;51.534;11.866;2022-09-09T08:50:36;21.50;99.90
26182;DHT22;13927;51.534;11.866;2022-09-09T08:53:04;21.50;99.90
26182;DHT22;13927;51.534;11.866;2022-09-09T08:55:57;21.60;99.90
26182;DHT22;13927;51.534;11.866;2022-09-09T08:58:35;21.80;99.90
26182;DHT22;13927;51.534;11.866;2022-09-09T09:04:41;22.00;99.90
26182;DHT22;13927;51.534;11.866;2022-09-09T09:14:01;21.90;99.90
26182;DHT22;13927;51.534;11.866;2022-09-09T09:16:51;22.00;99.90
26182;DHT22;13927;51.534;11.866;2022-09-09T09:19:26;22.20;99.90
26182;DHT22;13927;51.534;11.866;2022-09-09T09:24:53;22.40;99.90
26182;DHT22;13927;51.534;11.866;2022-09-09T09:30:04;22.70;99.90
26182;DHT22;13927;51.534;11.866;2022-09-09T09:32:39;22.80;99.90
26182;DHT22;13927;51.534;11.866;2022-09-09T09:35:13;22.90;99.90
26182;DHT22;13927;51.534;11.866;2022-09-09T09:37:40;23.20;99.90
26182;DHT22;13927;51.534;11.866;2022-09-09T09:40:14;23.30;99.90
26182;DHT22;13927;51.534;11.866;2022-09-09T09:42:54;23.10;99.90
26182;DHT22;13927;51.534;11.866;2022-09-09T09:45:42;23.40;99.90
26182;DHT22;13927;51.534;11.866;2022-09-09T09:48:12;23.80;99.90
26182;DHT22;13927;51.534;11.866;2022-09-09T09:51:05;23.80;99.90
26182;DHT22;13927;51.534;11.866;2022-09-09T09:53:38;24.00;99.90
26182;DHT22;13927;51.534;11.866;2022-09-09T10:01:28;24.80;99.90
26182;DHT22;13927;51.534;11.866;2022-09-09T10:04:12;25.00;99.90
26182;DHT22;13927;51.534;11.866;2022-09-09T10:06:41;24.90;99.90
26182;DHT22;13927;51.534;11.866;2022-09-09T10:09:27;24.30;99.90
26182;DHT22;13927;51.534;11.866;2022-09-09T10:18:25;22.50;99.90
26182;DHT22;13927;51.534;11.866;2022-09-09T10:33:10;24.70;99.90
26182;DHT22;13927;51.534;11.866;2022-09-09T10:36:19;24.30;99.90
26182;DHT22;13927;51.534;11.866;2022-09-09T10:38:48;23.70;99.90
26182;DHT22;13927;51.534;11.866;2022-09-09T10:47:38;22.80;99.90
26182;DHT22;13927;51.534;11.866;2022-09-09T10:50:50;23.10;99.90
26182;DHT22;13927;51.534;11.866;2022-09-09T10:56:13;23.60;99.90
26182;DHT22;13927;51.534;11.866;2022-09-09T10:58:49;24.30;99.90
26182;DHT22;13927;51.534;11.866;2022-09-09T11:07:39;24.30;99.90
26182;DHT22;13927;51.534;11.866;2022-09-09T11:10:34;24.10;99.90
26182;DHT22;13927;51.534;11.866;2022-09-09T11:13:16;23.70;99.90
26182;DHT22;13927;51.534;11.866;2022-09-09T11:19:36;23.10;99.90
26182;DHT22;13927;51.534;11.866;2022-09-09T11:25:26;22.70;99.90
26182;DHT22;13927;51.534;11.866;2022-09-09T11:28:20;22.80;99.90
26182;DHT22;13927;51.534;11.866;2022-09-09T11:42:24;24.50;99.90
26182;DHT22;13927;51.534;11.866;2022-09-09T11:44:50;24.80;99.90
26182;DHT22;13927;51.534;11.866;2022-09-09T11:47:27;24.90;99.90
26182;DHT22;13927;51.534;11.866;2022-09-09T11:52:45;25.40;99.90
26182;DHT22;13927;51.534;11.866;2022-09-09T11:55:29;25.50;99.90
26182;DHT22;13927;51.534;11.866;2022-09-09T11:57:59;25.30;99.90
26182;DHT22;13927;51.534;11.866;2022-09-09T12:00:40;25.30;99.90
26182;DHT22;13927;51.534;11.866;2022-09-09T12:06:46;25.00;99.90
26182;DHT22;13927;51.534;11.866;2022-09-09T12:09:25;25.00;99.90
26182;DHT22;13927;51.534;11.866;2022-09-09T12:12:05;24.90;99.90
26182;DHT22;13927;51.534;11.866;2022-09-09T12:14:44;24.90;99.90
26182;DHT22;13927;51.534;11.866;2022-09-09T12:17:26;25.00;99.90
26182;DHT22;13927;51.534;11.866;2022-09-09T12:23:22;24.90;99.90
26182;DHT22;13927;51.534;11.866;2022-09-09T12:26:13;24.80;99.90
26182;DHT22;13927;51.534;11.866;2022-09-09T12:32:07;24.40;99.90
26182;DHT22;13927;51.534;11.866;2022-09-09T12:34:42;24.10;99.90
26182;DHT22;13927;51.534;11.866;2022-09-09T12:40:32;23.70;99.90
26182;DHT22;13927;51.534;11.866;2022-09-09T12:43:22;23.60;99.90
26182;DHT22;13927;51.534;11.866;2022-09-09T12:45:50;23.60;99.90
26182;DHT22;13927;51.534;11.866;2022-09-09T12:48:46;23.50;99.90
26182;DHT22;13927;51.534;11.866;2022-09-09T12:51:29;23.40;99.90
26182;DHT22;13927;51.534;11.866;2022-09-09T12:53:56;23.30;99.90
26182;DHT22;13927;51.534;11.866;2022-09-09T12:56:28;23.30;99.90
26182;DHT22;13927;51.534;11.866;2022-09-09T12:58:57;23.50;99.90
26182;DHT22;13927;51.534;11.866;2022-09-09T13:03:52;23.80;99.90
26182;DHT22;13927;51.534;11.866;2022-09-09T13:06:27;24.20;99.90
26182;DHT22;13927;51.534;11.866;2022-09-09T13:08:55;24.40;99.90
26182;DHT22;13927;51.534;11.866;2022-09-09T13:11:26;24.40;99.90
26182;DHT22;13927;51.534;11.866;2022-09-09T13:13:55;24.50;99.90
26182;DHT22;13927;51.534;11.866;2022-09-09T13:16:23;24.80;99.90
26182;DHT22;13927;51.534;11.866;2022-09-09T13:19:01;25.00;99.90
26182;DHT22;13927;51.534;11.866;2022-09-09T13:21:36;25.30;99.90
26182;DHT22;13927;51.534;11.866;2022-09-09T13:24:30;25.70;99.90
26182;DHT22;13927;51.534;11.866;2022-09-09T13:29:56;26.00;99.90
26182;DHT22;13927;51.534;11.866;2022-09-09T13:32:24;26.10;99.90
26182;DHT22;13927;51.534;11.866;2022-09-09T13:34:59;26.10;99.90
26182;DHT22;13927;51.534;11.866;2022-09-09T13:37:39;26.10;99.90
26182;DHT22;13927;51.534;11.866;2022-09-09T13:40:20;26.20;99.90
26182;DHT22;13927;51.534;11.866;2022-09-09T13:42:50;26.10;99.90
26182;DHT22;13927;51.534;11.866;2022-09-09T13:45:22;25.80;99.90
26182;DHT22;13927;51.534;11.866;2022-09-09T13:47:52;25.50;99.90
26182;DHT22;13927;51.534;11.866;2022-09-09T13:50:30;25.40;99.90
26182;DHT22;13927;51.534;11.866;2022-09-09T13:52:59;25.50;99.90
26182;DHT22;13927;51.534;11.866;2022-09-09T13:55:26;25.60;99.90
26182;DHT22;13927;51.534;11.866;2022-09-09T13:57:58;25.80;99.90
26182;DHT22;13927;51.534;11.866;2022-09-09T14:00:33;25.80;99.90
26182;DHT22;13927;51.534;11.866;2022-09-09T14:02:59;25.50;99.90
26182;DHT22;13927;51.534;11.866;2022-09-09T14:05:27;25.60;99.90
26182;DHT22;13927;51.534;11.866;2022-09-09T14:07:53;25.80;99.90
26182;DHT22;13927;51.534;11.866;2022-09-09T14:10:19;25.60;99.90
26182;DHT22;13927;51.534;11.866;2022-09-09T14:12:46;25.60;99.90
26182;DHT22;13927;51.534;11.866;2022-09-09T14:15:12;25.50;99.90
26182;DHT22;13927;51.534;11.866;2022-09-09T14:17:41;25.40;99.90
26182;DHT22;13927;51.534;11.866;2022-09-09T14:20:08;25.50;99.90
26182;DHT22;13927;51.534;11.866;2022-09-09T14:22:35;25.70;99.90
26182;DHT22;13927;51.534;11.866;2022-09-09T14:25:01;25.80;99.90
26182;DHT22;13927;51.534;11.866;2022-09-09T14:27:27;25.20;99.90
26182;DHT22;13927;51.534;11.866;2022-09-09T14:30:00;25.00;99.90
26182;DHT22;13927;51.534;11.866;2022-09-09T14:32:32;25.00;99.90
26182;DHT22;13927;51.534;11.866;2022-09-09T14:34:58;25.20;99.90
26182;DHT22;13927;51.534;11.866;2022-09-09T14:37:24;25.30;99.90
26182;DHT22;13927;51.534;11.866;2022-09-09T14:39:49;25.30;99.90
26182;DHT22;13927;51.534;11.866;2022-09-09T14:42:16;25.20;99.90
26182;DHT22;13927;51.534;11.866;2022-09-09T14:44:43;24.80;99.90
26182;DHT22;13927;51.534;11.866;2022-09-09T14:47:09;24.90;99.90
26182;DHT22;13927;51.534;11.866;2022-09-09T14:49:35;24.90;99.90
26182;DHT22;13927;51.534;11.866;2022-09-09T14:52:01;24.90;99.90
26182;DHT22;13927;51.534;11.866;2022-09-09T14:54:27;25.10;99.90
26182;DHT22;13927;51.534;11.866;2022-09-09T14:56:53;25.10;99.90
26182;DHT22;13927;51.534;11.866;2022-09-09T14:59:19;24.90;99.90
26182;DHT22;13927;51.534;11.866;2022-09-09T15:01:45;25.00;99.90
26182;DHT22;13927;51.534;11.866;2022-09-09T15:04:12;24.90;99.90
26182;DHT22;13927;51.534;11.866;2022-09-09T15:06:40;24.80;99.90
26182;DHT22;13927;51.534;11.866;2022-09-09T15:09:08;24.60;99.90
26182;DHT22;13927;51.534;11.866;2022-09-09T15:11:36;24.60;99.90
26182;DHT22;13927;51.534;11.866;2022-09-09T15:14:04;24.40;99.90
26182;DHT22;13927;51.534;11.866;2022-09-09T15:16:31;24.30;99.90
26182;DHT22;13927;51.534;11.866;2022-09-09T15:18:58;24.20;99.90
26182;DHT22;13927;51.534;11.866;2022-09-09T15:21:28;24.20;99.90
26182;DHT22;13927;51.534;11.866;2022-09-09T15:23:56;24.20;99.90
26182;DHT22;13927;51.534;11.866;2022-09-09T15:26:23;24.20;99.90
26182;DHT22;13927;51.534;11.866;2022-09-09T15:28:49;24.20;99.90
26182;DHT22;13927;51.534;11.866;2022-09-09T15:31:23;24.10;99.90
26182;DHT22;13927;51.534;11.866;2022-09-09T15:33:58;24.00;99.90
26182;DHT22;13927;51.534;11.866;2022-09-09T15:36:47;24.00;99.90
26182;DHT22;13927;51.534;11.866;2022-09-09T15:39:15;24.10;99.90
26182;DHT22;13927;51.534;11.866;2022-09-09T15:41:43;23.90;99.90
26182;DHT22;13927;51.534;11.866;2022-09-09T15:44:10;23.80;99.90
26182;DHT22;13927;51.534;11.866;2022-09-09T15:46:42;23.80;99.90
26182;DHT22;13927;51.534;11.866;2022-09-09T15:49:19;23.90;99.90
26182;DHT22;13927;51.534;11.866;2022-09-09T15:51:58;23.90;99.90
26182;DHT22;13927;51.534;11.866;2022-09-09T15:54:34;23.90;99.90
26182;DHT22;13927;51.534;11.866;2022-09-09T15:57:03;23.80;99.90
26182;DHT22;13927;51.534;11.866;2022-09-09T15:59:31;23.90;99.90
26182;DHT22;13927;51.534;11.866;2022-09-09T16:01:59;23.70;99.90
26182;DHT22;13927;51.534;11.866;2022-09-09T16:04:27;23.60;99.90
26182;DHT22;13927;51.534;11.866;2022-09-09T16:07:02;23.60;99.90
26182;DHT22;13927;51.534;11.866;2022-09-09T16:09:31;23.50;99.90
26182;DHT22;13927;51.534;11.866;2022-09-09T16:12:02;23.30;99.90
26182;DHT22;13927;51.534;11.866;2022-09-09T16:14:32;23.20;99.90
26182;DHT22;13927;51.534;11.866;2022-09-09T16:17:02;23.10;99.90
26182;DHT22;13927;51.534;11.866;2022-09-09T16:19:28;23.10;99.90
26182;DHT22;13927;51.534;11.866;2022-09-09T16:21:54;22.90;99.90
26182;DHT22;13927;51.534;11.866;2022-09-09T16:24:20;22.90;99.90
26182;DHT22;13927;51.534;11.866;2022-09-09T16:26:52;22.80;99.90
26182;DHT22;13927;51.534;11.866;2022-09-09T16:29:20;22.80;99.90
26182;DHT22;13927;51.534;11.866;2022-09-09T16:31:53;22.70;99.90
26182;DHT22;13927;51.534;11.866;2022-09-09T16:34:19;22.60;99.90
26182;DHT22;13927;51.534;11.866;2022-09-09T16:36:46;22.50;99.90
26182;DHT22;13927;51.534;11.866;2022-09-09T16:39:17;22.40;99.90
26182;DHT22;13927;51.534;11.866;2022-09-09T16:41:44;22.40;99.90
26182;DHT22;13927;51.534;11.866;2022-09-09T16:44:11;22.30;99.90
26182;DHT22;13927;51.534;11.866;2022-09-09T16:46:40;22.30;99.90
26182;DHT22;13927;51.534;11.866;2022-09-09T16:49:09;22.20;99.90
26182;DHT22;13927;51.534;11.866;2022-09-09T16:51:42;22.20;99.90
26182;DHT22;13927;51.534;11.866;2022-09-09T16:54:11;22.10;99.90
26182;DHT22;13927;51.534;11.866;2022-09-09T16:56:39;22.00;99.90
26182;DHT22;13927;51.534;11.866;2022-09-09T16:59:14;21.80;99.90
26182;DHT22;13927;51.534;11.866;2022-09-09T17:01:50;21.80;99.90
26182;DHT22;13927;51.534;11.866;2022-09-09T17:04:20;21.70;99.90
26182;DHT22;13927;51.534;11.866;2022-09-09T17:06:51;21.60;99.90
26182;DHT22;13927;51.534;11.866;2022-09-09T17:09:20;21.40;99.90
26182;DHT22;13927;51.534;11.866;2022-09-09T17:11:48;21.40;99.90
26182;DHT22;13927;51.534;11.866;2022-09-09T17:14:18;21.30;99.90
26182;DHT22;13927;51.534;11.866;2022-09-09T17:16:44;21.20;99.90
26182;DHT22;13927;51.534;11.866;2022-09-09T17:19:13;21.20;99.90
26182;DHT22;13927;51.534;11.866;2022-09-09T17:21:39;21.10;99.90
26182;DHT22;13927;51.534;11.866;2022-09-09T17:24:05;21.10;99.90
26182;DHT22;13927;51.534;11.866;2022-09-09T17:26:32;21.00;99.90
26182;DHT22;13927;51.534;11.866;2022-09-09T17:28:59;20.90;99.90
26182;DHT22;13927;51.534;11.866;2022-09-09T17:31:27;20.80;99.90
26182;DHT22;13927;51.534;11.866;2022-09-09T17:33:55;20.70;99.90
26182;DHT22;13927;51.534;11.866;2022-09-09T17:36:39;20.60;99.90
26182;DHT22;13927;51.534;11.866;2022-09-09T17:39:05;20.50;99.90
26182;DHT22;13927;51.534;11.866;2022-09-09T17:41:34;20.40;99.90
26182;DHT22;13927;51.534;11.866;2022-09-09T17:44:02;20.40;99.90
26182;DHT22;13927;51.534;11.866;2022-09-09T17:46:34;20.20;99.90
26182;DHT22;13927;51.534;11.866;2022-09-09T17:49:04;20.20;99.90
26182;DHT22;13927;51.534;11.866;2022-09-09T17:51:32;20.10;99.90
26182;DHT22;13927;51.534;11.866;2022-09-09T17:54:02;20.10;99.90
26182;DHT22;13927;51.534;11.866;2022-09-09T17:56:34;20.10;99.90
26182;DHT22;13927;51.534;11.866;2022-09-09T17:59:02;20.00;99.90
26182;DHT22;13927;51.534;11.866;2022-09-09T18:01:32;19.90;99.90
26182;DHT22;13927;51.534;11.866;2022-09-09T18:04:04;19.80;99.90
26182;DHT22;13927;51.534;11.866;2022-09-09T18:06:37;19.80;99.90
26182;DHT22;13927;51.534;11.866;2022-09-09T18:09:10;19.70;99.90
26182;DHT22;13927;51.534;11.866;2022-09-09T18:11:40;19.70;99.90
26182;DHT22;13927;51.534;11.866;2022-09-09T18:14:10;19.60;99.90
26182;DHT22;13927;51.534;11.866;2022-09-09T18:16:41;19.60;99.90
26182;DHT22;13927;51.534;11.866;2022-09-09T18:19:09;19.50;99.90
26182;DHT22;13927;51.534;11.866;2022-09-09T18:21:38;19.50;99.90
26182;DHT22;13927;51.534;11.866;2022-09-09T18:24:06;19.40;99.90
26182;DHT22;13927;51.534;11.866;2022-09-09T18:26:35;19.40;99.90
26182;DHT22;13927;51.534;11.866;2022-09-09T18:29:07;19.30;99.90
26182;DHT22;13927;51.534;11.866;2022-09-09T18:31:35;19.30;99.90
26182;DHT22;13927;51.534;11.866;2022-09-09T18:34:06;19.20;99.90
26182;DHT22;13927;51.534;11.866;2022-09-09T18:36:37;19.20;99.90
26182;DHT22;13927;51.534;11.866;2022-09-09T18:39:06;19.10;99.90
26182;DHT22;13927;51.534;11.866;2022-09-09T18:41:43;19.00;99.90
26182;DHT22;13927;51.534;11.866;2022-09-09T18:44:15;18.80;99.90
26182;DHT22;13927;51.534;11.866;2022-09-09T18:46:42;18.70;99.90
26182;DHT22;13927;51.534;11.866;2022-09-09T18:49:15;18.60;99.90